sensor_id;sensor_type;location;lat;lon;timestamp;P1;durP1;ratioP1;P2;durP2;ratioP2
29254;SDS011;16277;48.890;2.306;2023-02-28T00:08:44;10.43;;;4.70;;
29254;SDS011;16277;48.890;2.306;2023-02-28T00:23:49;6.20;;;4.73;;
29254;SDS011;16277;48.890;2.306;2023-02-28T00:38:53;6.23;;;5.87;;
29254;SDS011;16277;48.890;2.306;2023-02-28T00:53:58;5.33;;;4.90;;
29254;SDS011;16277;48.890;2.306;2023-02-28T01:09:02;5.03;;;4.63;;
29254;SDS011;16277;48.890;2.306;2023-02-28T01:24:07;4.10;;;3.90;;
29254;SDS011;16277;48.890;2.306;2023-02-28T01:39:12;4.30;;;3.63;;
29254;SDS011;16277;48.890;2.306;2023-02-28T01:54:18;9.60;;;4.60;;
29254;SDS011;16277;48.890;2.306;2023-02-28T02:09:26;3.70;;;3.60;;
29254;SDS011;16277;48.890;2.306;2023-02-28T02:40:05;4.57;;;4.37;;
29254;SDS011;16277;48.890;2.306;2023-02-28T02:55:15;4.80;;;4.43;;
29254;SDS011;16277;48.890;2.306;2023-02-28T03:10:30;8.23;;;3.80;;
29254;SDS011;16277;48.890;2.306;2023-02-28T03:25:38;6.40;;;3.63;;
29254;SDS011;16277;48.890;2.306;2023-02-28T03:40:49;7.23;;;4.43;;
29254;SDS011;16277;48.890;2.306;2023-02-28T03:55:58;3.63;;;3.33;;
29254;SDS011;16277;48.890;2.306;2023-02-28T04:11:08;5.90;;;3.73;;
29254;SDS011;16277;48.890;2.306;2023-02-28T04:26:22;10.47;;;5.27;;
29254;SDS011;16277;48.890;2.306;2023-02-28T04:41:26;7.20;;;5.50;;
29254;SDS011;16277;48.890;2.306;2023-02-28T04:56:34;8.17;;;4.90;;
29254;SDS011;16277;48.890;2.306;2023-02-28T05:11:38;4.23;;;3.87;;
29254;SDS011;16277;48.890;2.306;2023-02-28T05:26:43;4.73;;;4.57;;
29254;SDS011;16277;48.890;2.306;2023-02-28T05:41:47;5.50;;;5.30;;
29254;SDS011;16277;48.890;2.306;2023-02-28T05:56:52;7.17;;;6.00;;
29254;SDS011;16277;48.890;2.306;2023-02-28T06:11:58;9.27;;;8.37;;
29254;SDS011;16277;48.890;2.306;2023-02-28T06:27:03;10.77;;;10.03;;
29254;SDS011;16277;48.890;2.306;2023-02-28T06:42:08;12.10;;;9.40;;
29254;SDS011;16277;48.890;2.306;2023-02-28T06:57:13;11.30;;;10.27;;
29254;SDS011;16277;48.890;2.306;2023-02-28T07:12:17;13.87;;;12.47;;
29254;SDS011;16277;48.890;2.306;2023-02-28T07:27:22;15.30;;;12.17;;
29254;SDS011;16277;48.890;2.306;2023-02-28T07:42:28;11.33;;;10.53;;
29254;SDS011;16277;48.890;2.306;2023-02-28T07:57:32;14.00;;;12.57;;
29254;SDS011;16277;48.890;2.306;2023-02-28T08:12:37;21.47;;;11.40;;
29254;SDS011;16277;48.890;2.306;2023-02-28T08:27:42;13.93;;;12.53;;
29254;SDS011;16277;48.890;2.306;2023-02-28T08:42:46;15.03;;;11.77;;
29254;SDS011;16277;48.890;2.306;2023-02-28T08:57:51;12.17;;;11.57;;
29254;SDS011;16277;48.890;2.306;2023-02-28T09:12:57;12.60;;;10.70;;
29254;SDS011;16277;48.890;2.306;2023-02-28T09:28:01;13.57;;;10.83;;
29254;SDS011;16277;48.890;2.306;2023-02-28T09:43:09;9.73;;;9.13;;
29254;SDS011;16277;48.890;2.306;2023-02-28T09:58:20;8.83;;;8.20;;
29254;SDS011;16277;48.890;2.306;2023-02-28T10:13:34;10.20;;;9.30;;
29254;SDS011;16277;48.890;2.306;2023-02-28T10:28:41;17.63;;;6.70;;
29254;SDS011;16277;48.890;2.306;2023-02-28T10:43:46;13.90;;;6.30;;
29254;SDS011;16277;48.890;2.306;2023-02-28T10:58:53;9.40;;;5.70;;
29254;SDS011;16277;48.890;2.306;2023-02-28T11:14:04;10.07;;;6.27;;
29254;SDS011;16277;48.890;2.306;2023-02-28T11:29:19;4.20;;;4.00;;
29254;SDS011;16277;48.890;2.306;2023-02-28T11:44:30;3.77;;;3.63;;
29254;SDS011;16277;48.890;2.306;2023-02-28T11:59:51;4.37;;;4.20;;
29254;SDS011;16277;48.890;2.306;2023-02-28T12:15:26;5.13;;;3.80;;
29254;SDS011;16277;48.890;2.306;2023-02-28T12:30:38;3.10;;;2.93;;
29254;SDS011;16277;48.890;2.306;2023-02-28T12:45:51;4.37;;;4.00;;
29254;SDS011;16277;48.890;2.306;2023-02-28T13:01:06;11.73;;;4.33;;
29254;SDS011;16277;48.890;2.306;2023-02-28T13:16:52;14.37;;;3.73;;
29254;SDS011;16277;48.890;2.306;2023-02-28T13:47:27;19.00;;;6.40;;
29254;SDS011;16277;48.890;2.306;2023-02-28T14:02:45;7.73;;;3.60;;
29254;SDS011;16277;48.890;2.306;2023-02-28T14:18:15;13.53;;;3.60;;
29254;SDS011;16277;48.890;2.306;2023-02-28T14:33:34;6.37;;;2.87;;
29254;SDS011;16277;48.890;2.306;2023-02-28T14:48:46;8.37;;;3.73;;
29254;SDS011;16277;48.890;2.306;2023-02-28T15:03:58;2.30;;;2.20;;
29254;SDS011;16277;48.890;2.306;2023-02-28T15:19:06;8.80;;;3.17;;
29254;SDS011;16277;48.890;2.306;2023-02-28T15:34:19;6.80;;;3.00;;
29254;SDS011;16277;48.890;2.306;2023-02-28T15:49:31;9.30;;;3.47;;
29254;SDS011;16277;48.890;2.306;2023-02-28T16:05:16;3.67;;;3.57;;
29254;SDS011;16277;48.890;2.306;2023-02-28T16:20:30;2.85;;;2.75;;
29254;SDS011;16277;48.890;2.306;2023-02-28T16:35:35;14.77;;;3.63;;
29254;SDS011;16277;48.890;2.306;2023-02-28T17:05:45;3.47;;;3.27;;
29254;SDS011;16277;48.890;2.306;2023-02-28T17:20:50;10.87;;;3.63;;
29254;SDS011;16277;48.890;2.306;2023-02-28T17:35:54;3.37;;;3.27;;
29254;SDS011;16277;48.890;2.306;2023-02-28T17:50:59;6.03;;;3.80;;
29254;SDS011;16277;48.890;2.306;2023-02-28T18:06:04;4.50;;;3.77;;
29254;SDS011;16277;48.890;2.306;2023-02-28T18:21:10;4.40;;;4.23;;
29254;SDS011;16277;48.890;2.306;2023-02-28T18:36:16;8.53;;;5.40;;
29254;SDS011;16277;48.890;2.306;2023-02-28T18:51:23;4.80;;;4.60;;
29254;SDS011;16277;48.890;2.306;2023-02-28T19:06:30;6.00;;;4.57;;
29254;SDS011;16277;48.890;2.306;2023-02-28T19:21:35;6.60;;;6.10;;
29254;SDS011;16277;48.890;2.306;2023-02-28T19:36:40;6.30;;;5.80;;
29254;SDS011;16277;48.890;2.306;2023-02-28T19:51:44;4.87;;;4.63;;
29254;SDS011;16277;48.890;2.306;2023-02-28T20:06:49;5.67;;;5.27;;
29254;SDS011;16277;48.890;2.306;2023-02-28T20:21:54;5.27;;;5.10;;
29254;SDS011;16277;48.890;2.306;2023-02-28T20:36:59;5.23;;;5.03;;
29254;SDS011;16277;48.890;2.306;2023-02-28T20:52:03;8.50;;;5.57;;
29254;SDS011;16277;48.890;2.306;2023-02-28T21:07:08;6.40;;;6.10;;
29254;SDS011;16277;48.890;2.306;2023-02-28T21:22:12;5.43;;;5.27;;
29254;SDS011;16277;48.890;2.306;2023-02-28T21:37:17;5.90;;;5.70;;
29254;SDS011;16277;48.890;2.306;2023-02-28T21:52:22;6.17;;;5.87;;
29254;SDS011;16277;48.890;2.306;2023-02-28T22:07:26;14.17;;;6.07;;
29254;SDS011;16277;48.890;2.306;2023-02-28T22:22:31;8.83;;;8.00;;
29254;SDS011;16277;48.890;2.306;2023-02-28T22:37:35;7.17;;;6.77;;
29254;SDS011;16277;48.890;2.306;2023-02-28T22:52:40;8.20;;;7.90;;
29254;SDS011;16277;48.890;2.306;2023-02-28T23:07:44;6.30;;;5.80;;
29254;SDS011;16277;48.890;2.306;2023-02-28T23:22:49;6.37;;;6.07;;
29254;SDS011;16277;48.890;2.306;2023-02-28T23:37:54;11.67;;;6.50;;
29254;SDS011;16277;48.890;2.306;2023-02-28T23:52:59;11.17;;;7.27;;
